Time,TemperatureF,DewpointF,PressureIn,WindDirection,WindDirectionDegrees,WindSpeedMPH,WindSpeedGustMPH,Humidity,HourlyPrecipIn,Conditions,Clouds,dailyrainin,SoftwareType,DateUTC
2013-03-13 00:00:00,19.4,13.7,30.27,WNW,294,3.0,16.0,78,0.00,,,0.00,VWS V14.01,2013-03-13 05:00:00,
2013-03-13 00:05:00,19.4,13.7,30.27,NW,314,13.0,15.0,78,0.00,,,0.00,VWS V14.01,2013-03-13 05:05:00,
2013-03-13 00:10:00,19.3,13.6,30.27,WNW,299,5.0,15.0,78,0.00,,,0.00,VWS V14.01,2013-03-13 05:10:00,
2013-03-13 00:15:00,19.1,13.4,30.27,WNW,297,3.0,15.0,78,0.00,,,0.00,VWS V14.01,2013-03-13 05:15:00,
2013-03-13 00:20:00,19.0,13.6,30.27,NW,318,3.0,15.0,79,0.00,,,0.00,VWS V14.01,2013-03-13 05:20:00,
2013-03-13 00:26:00,19.0,13.6,30.28,West,275,6.0,15.0,79,0.00,,,0.00,VWS V14.01,2013-03-13 05:26:00,
2013-03-13 00:30:00,18.9,13.5,30.28,WNW,302,4.0,15.0,79,0.00,,,0.00,VWS V14.01,2013-03-13 05:30:00,
2013-03-13 00:31:00,18.9,13.5,30.28,WNW,302,3.0,4.0,79,0.00,,,0.00,VWS V14.01,2013-03-13 05:31:00,
2013-03-13 00:37:00,18.7,13.3,30.28,West,269,3.0,10.0,79,0.00,,,0.00,VWS V14.01,2013-03-13 05:37:00,
2013-03-13 00:42:00,18.6,13.2,30.28,NW,312,6.0,12.0,79,0.00,,,0.00,VWS V14.01,2013-03-13 05:42:00,
2013-03-13 00:47:00,18.6,13.2,30.28,NNW,331,3.0,12.0,79,0.00,,,0.00,VWS V14.01,2013-03-13 05:47:00,
2013-03-13 00:52:00,18.4,13.0,30.28,WNW,293,4.0,12.0,79,0.00,,,0.00,VWS V14.01,2013-03-13 05:52:00,
2013-03-13 00:58:00,18.3,13.2,30.28,WNW,302,5.0,12.0,80,0.00,,,0.00,VWS V14.01,2013-03-13 05:58:00,
2013-03-13 01:00:00,18.2,13.1,30.28,WNW,303,4.0,12.0,80,0.00,,,0.00,VWS V14.01,2013-03-13 06:00:00,
2013-03-13 01:03:00,18.2,13.1,30.28,WNW,297,4.0,9.0,80,0.00,,,0.00,VWS V14.01,2013-03-13 06:03:00,
2013-03-13 01:08:00,18.1,13.0,30.28,WNW,298,3.0,9.0,80,0.00,,,0.00,VWS V14.01,2013-03-13 06:08:00,
2013-03-13 01:13:00,17.9,12.8,30.28,WNW,293,2.0,9.0,80,0.00,,,0.00,VWS V14.01,2013-03-13 06:13:00,
2013-03-13 01:19:00,17.7,12.6,30.28,NW,325,0.0,9.0,80,0.00,,,0.00,VWS V14.01,2013-03-13 06:19:00,
2013-03-13 01:24:00,17.7,12.6,30.29,WNW,300,2.0,9.0,80,0.00,,,0.00,VWS V14.01,2013-03-13 06:24:00,
2013-03-13 01:29:00,17.6,12.5,30.29,WNW,301,0.0,9.0,80,0.00,,,0.00,VWS V14.01,2013-03-13 06:29:00,
2013-03-13 01:30:00,17.5,12.4,30.29,WNW,302,3.0,9.0,80,0.00,,,0.00,VWS V14.01,2013-03-13 06:30:00,
2013-03-13 01:34:00,17.5,12.4,30.29,WNW,302,0.0,5.0,80,0.00,,,0.00,VWS V14.01,2013-03-13 06:34:00,
2013-03-13 01:39:00,17.3,12.2,30.29,NW,304,1.0,7.0,80,0.00,,,0.00,VWS V14.01,2013-03-13 06:39:00,
2013-03-13 01:45:00,17.1,12.0,30.30,WNW,286,5.0,7.0,80,0.00,,,0.00,VWS V14.01,2013-03-13 06:45:00,
2013-03-13 01:50:00,17.0,11.9,30.30,WNW,290,1.0,9.0,80,0.00,,,0.00,VWS V14.01,2013-03-13 06:50:00,
2013-03-13 01:55:00,16.8,12.0,30.30,WNW,290,0.0,9.0,81,0.00,,,0.00,VWS V14.01,2013-03-13 06:55:00,
2013-03-13 02:00:00,16.6,11.8,30.31,WNW,290,0.0,9.0,81,0.00,,,0.00,VWS V14.01,2013-03-13 07:00:00,
2013-03-13 02:05:00,16.4,11.6,30.31,WNW,294,4.0,6.0,81,0.00,,,0.00,VWS V14.01,2013-03-13 07:05:00,
2013-03-13 02:11:00,16.3,11.5,30.31,WNW,302,0.0,6.0,81,0.00,,,0.00,VWS V14.01,2013-03-13 07:11:00,
2013-03-13 02:17:00,16.2,11.4,30.31,WNW,302,2.0,6.0,81,0.00,,,0.00,VWS V14.01,2013-03-13 07:17:00,
2013-03-13 02:22:00,16.0,11.2,30.32,West,278,3.0,6.0,81,0.00,,,0.00,VWS V14.01,2013-03-13 07:22:00,
2013-03-13 02:27:00,15.8,11.0,30.31,WNW,287,0.0,6.0,81,0.00,,,0.00,VWS V14.01,2013-03-13 07:27:00,
2013-03-13 02:30:00,15.6,10.8,30.31,WNW,287,2.0,6.0,81,0.00,,,0.00,VWS V14.01,2013-03-13 07:30:00,
2013-03-13 02:32:00,15.6,10.8,30.31,WNW,287,0.0,3.0,81,0.00,,,0.00,VWS V14.01,2013-03-13 07:32:00,
2013-03-13 02:38:00,15.4,10.6,30.32,WNW,295,2.0,5.0,81,0.00,,,0.00,VWS V14.01,2013-03-13 07:38:00,
2013-03-13 02:43:00,15.3,10.8,30.32,WNW,296,2.0,5.0,82,0.00,,,0.00,VWS V14.01,2013-03-13 07:43:00,
2013-03-13 02:49:00,15.0,10.5,30.32,WNW,296,3.0,5.0,82,0.00,,,0.00,VWS V14.01,2013-03-13 07:49:00,
2013-03-13 02:54:00,14.9,10.4,30.32,WNW,298,0.0,8.0,82,0.00,,,0.00,VWS V14.01,2013-03-13 07:54:00,
2013-03-13 02:59:00,14.7,10.2,30.32,WNW,297,0.0,8.0,82,0.00,,,0.00,VWS V14.01,2013-03-13 07:59:00,
2013-03-13 03:00:00,14.6,10.1,30.32,WNW,298,0.0,8.0,82,0.00,,,0.00,VWS V14.01,2013-03-13 08:00:00,
2013-03-13 03:04:00,14.5,10.0,30.33,WNW,297,0.0,2.0,82,0.00,,,0.00,VWS V14.01,2013-03-13 08:04:00,
2013-03-13 03:10:00,14.3,9.8,30.33,WNW,297,2.0,6.0,82,0.00,,,0.00,VWS V14.01,2013-03-13 08:10:00,
2013-03-13 03:15:00,14.2,9.7,30.33,WNW,297,4.0,6.0,82,0.00,,,0.00,VWS V14.01,2013-03-13 08:15:00,
2013-03-13 03:25:00,13.9,9.4,30.33,WNW,298,3.0,3.0,82,0.00,,,0.00,VWS V14.01,2013-03-13 08:25:00,
2013-03-13 03:30:00,13.8,9.6,30.33,WNW,298,0.0,4.0,83,0.00,,,0.00,VWS V14.01,2013-03-13 08:30:00,
2013-03-13 03:35:00,13.6,9.4,30.33,WNW,298,2.0,5.0,83,0.00,,,0.00,VWS V14.01,2013-03-13 08:35:00,
2013-03-13 03:42:00,13.6,9.4,30.33,WNW,300,1.0,6.0,83,0.00,,,0.00,VWS V14.01,2013-03-13 08:42:00,
2013-03-13 03:47:00,13.5,9.3,30.33,WNW,300,1.0,6.0,83,0.00,,,0.00,VWS V14.01,2013-03-13 08:47:00,
2013-03-13 03:52:00,13.5,9.3,30.33,WNW,300,3.0,7.0,83,0.00,,,0.00,VWS V14.01,2013-03-13 08:52:00,
2013-03-13 03:57:00,13.4,9.2,30.33,WNW,300,0.0,7.0,83,0.00,,,0.00,VWS V14.01,2013-03-13 08:57:00,
2013-03-13 04:02:00,13.3,9.1,30.33,WNW,300,2.0,3.0,83,0.00,,,0.00,VWS V14.01,2013-03-13 09:02:00,
2013-03-13 04:08:00,13.2,9.0,30.33,WNW,300,0.0,3.0,83,0.00,,,0.00,VWS V14.01,2013-03-13 09:08:00,
2013-03-13 04:13:00,13.0,8.8,30.33,WNW,300,3.0,4.0,83,0.00,,,0.00,VWS V14.01,2013-03-13 09:13:00,
2013-03-13 04:18:00,12.8,8.6,30.33,WNW,300,0.0,4.0,83,0.00,,,0.00,VWS V14.01,2013-03-13 09:18:00,
2013-03-13 04:23:00,12.7,8.5,30.33,WNW,300,4.0,4.0,83,0.00,,,0.00,VWS V14.01,2013-03-13 09:23:00,
2013-03-13 04:29:00,12.6,8.7,30.34,WNW,300,2.0,4.0,84,0.00,,,0.00,VWS V14.01,2013-03-13 09:29:00,
2013-03-13 04:30:00,12.5,8.6,30.34,WNW,300,0.0,4.0,84,0.00,,,0.00,VWS V15.00,2013-03-13 09:30:00,
2013-03-13 04:34:00,12.5,8.6,30.34,WNW,300,0.0,3.0,84,0.00,,,0.00,VWS V14.01,2013-03-13 09:34:00,
2013-03-13 04:39:00,12.4,8.5,30.34,WNW,300,0.0,3.0,84,0.00,,,0.00,VWS V14.01,2013-03-13 09:39:00,
2013-03-13 04:44:00,12.3,8.4,30.34,WNW,300,0.0,3.0,84,0.00,,,0.00,VWS V14.01,2013-03-13 09:44:00,
2013-03-13 04:50:00,12.2,8.3,30.34,WNW,300,1.0,3.0,84,0.00,,,0.00,VWS V14.01,2013-03-13 09:50:00,
2013-03-13 04:55:00,12.1,8.2,30.34,WNW,300,1.0,3.0,84,0.00,,,0.00,VWS V14.01,2013-03-13 09:55:00,
2013-03-13 05:00:00,12.0,8.1,30.35,WNW,300,0.0,3.0,84,0.00,,,0.00,VWS V14.01,2013-03-13 10:00:00,
2013-03-13 05:05:00,11.8,7.9,30.35,WNW,300,0.0,0.0,84,0.00,,,0.00,VWS V14.01,2013-03-13 10:05:00,
2013-03-13 05:10:00,11.7,7.8,30.35,WNW,300,0.0,3.0,84,0.00,,,0.00,VWS V14.01,2013-03-13 10:10:00,
2013-03-13 05:16:00,11.6,7.7,30.35,WNW,300,0.0,3.0,84,0.00,,,0.00,VWS V14.01,2013-03-13 10:16:00,
2013-03-13 05:21:00,11.6,7.7,30.35,WNW,300,0.0,3.0,84,0.00,,,0.00,VWS V14.01,2013-03-13 10:21:00,
2013-03-13 05:26:00,11.5,7.6,30.36,WNW,300,0.0,5.0,84,0.00,,,0.00,VWS V14.01,2013-03-13 10:26:00,
2013-03-13 05:31:00,11.4,7.8,30.36,WNW,300,2.0,4.0,85,0.00,,,0.00,VWS V14.01,2013-03-13 10:31:00,
2013-03-13 05:37:00,11.4,7.8,30.37,WNW,300,1.0,4.0,85,0.00,,,0.00,VWS V14.01,2013-03-13 10:37:00,
2013-03-13 05:42:00,11.5,7.9,30.37,WNW,300,0.0,6.0,85,0.00,,,0.00,VWS V14.01,2013-03-13 10:42:00,
2013-03-13 05:47:00,11.5,7.9,30.37,WNW,300,2.0,7.0,85,0.00,,,0.00,VWS V14.01,2013-03-13 10:47:00,
2013-03-13 05:52:00,11.5,7.9,30.37,WNW,299,3.0,7.0,85,0.00,,,0.00,VWS V14.01,2013-03-13 10:52:00,
2013-03-13 05:57:00,11.5,7.9,30.37,WNW,300,2.0,7.0,85,0.00,,,0.00,VWS V14.01,2013-03-13 10:57:00,
2013-03-13 06:00:00,11.4,7.8,30.37,WNW,299,0.0,7.0,85,0.00,,,0.00,VWS V15.00,2013-03-13 11:00:00,
2013-03-13 06:03:00,11.4,7.8,30.37,WNW,299,1.0,3.0,85,0.00,,,0.00,VWS V14.01,2013-03-13 11:03:00,
2013-03-13 06:08:00,11.4,7.8,30.38,WNW,299,0.0,4.0,85,0.00,,,0.00,VWS V14.01,2013-03-13 11:08:00,
2013-03-13 06:13:00,11.3,7.4,30.38,WNW,299,0.0,4.0,84,0.00,,,0.00,VWS V14.01,2013-03-13 11:13:00,
2013-03-13 06:18:00,11.3,7.4,30.38,WNW,300,0.0,4.0,84,0.00,,,0.00,VWS V14.01,2013-03-13 11:18:00,
2013-03-13 06:23:00,11.2,7.3,30.38,WNW,300,0.0,4.0,84,0.00,,,0.00,VWS V14.01,2013-03-13 11:23:00,
2013-03-13 06:28:00,11.2,7.3,30.38,WNW,300,0.0,4.0,84,0.00,,,0.00,VWS V14.01,2013-03-13 11:28:00,
2013-03-13 06:34:00,11.1,7.2,30.38,WNW,299,0.0,0.0,84,0.00,,,0.00,VWS V14.01,2013-03-13 11:34:00,
2013-03-13 06:39:00,11.0,7.1,30.38,WNW,300,1.0,2.0,84,0.00,,,0.00,VWS V14.01,2013-03-13 11:39:00,
2013-03-13 06:44:00,11.0,7.4,30.38,WNW,300,0.0,2.0,85,0.00,,,0.00,VWS V14.01,2013-03-13 11:44:00,
2013-03-13 06:49:00,10.9,7.3,30.38,WNW,300,0.0,2.0,85,0.00,,,0.00,VWS V14.01,2013-03-13 11:49:00,
2013-03-13 06:55:00,10.8,7.2,30.39,WNW,300,0.0,2.0,85,0.00,,,0.00,VWS V14.01,2013-03-13 11:55:00,
2013-03-13 07:00:00,10.6,6.7,30.39,WNW,299,0.0,2.0,84,0.00,,,0.00,VWS V14.01,2013-03-13 12:00:00,
2013-03-13 07:05:00,10.4,6.8,30.39,WNW,300,0.0,0.0,85,0.00,,,0.00,VWS V14.01,2013-03-13 12:05:00,
2013-03-13 07:11:00,10.3,6.7,30.39,WNW,299,0.0,0.0,85,0.00,,,0.00,VWS V14.01,2013-03-13 12:11:00,
2013-03-13 07:16:00,10.2,6.6,30.39,WNW,300,0.0,0.0,85,0.00,,,0.00,VWS V14.01,2013-03-13 12:16:00,
2013-03-13 07:21:00,10.3,6.7,30.39,WNW,299,0.0,0.0,85,0.00,,,0.00,VWS V14.01,2013-03-13 12:21:00,
2013-03-13 07:26:00,10.3,6.7,30.39,WNW,300,0.0,0.0,85,0.00,,,0.00,VWS V14.01,2013-03-13 12:26:00,
2013-03-13 07:30:00,10.3,6.7,30.39,WNW,300,0.0,0.0,85,0.00,,,0.00,VWS V15.00,2013-03-13 12:30:00,
2013-03-13 07:31:00,10.3,6.7,30.39,WNW,299,0.0,0.0,85,0.00,,,0.00,VWS V14.01,2013-03-13 12:31:00,
2013-03-13 07:37:00,10.1,6.5,30.39,WNW,300,0.0,0.0,85,0.00,,,0.00,VWS V14.01,2013-03-13 12:37:00,
2013-03-13 07:42:00,10.0,6.4,30.39,WNW,300,0.0,0.0,85,0.00,,,0.00,VWS V14.01,2013-03-13 12:42:00,
2013-03-13 07:47:00,9.9,6.3,30.39,WNW,300,0.0,0.0,85,0.00,,,0.00,VWS V14.01,2013-03-13 12:47:00,
2013-03-13 07:52:00,9.9,6.3,30.39,WNW,300,0.0,0.0,85,0.00,,,0.00,VWS V14.01,2013-03-13 12:52:00,
2013-03-13 07:58:00,9.8,6.2,30.39,WNW,300,0.0,0.0,85,0.00,,,0.00,VWS V14.01,2013-03-13 12:58:00,
2013-03-13 08:03:00,9.8,6.2,30.40,WNW,300,0.0,1.0,85,0.00,,,0.00,VWS V14.01,2013-03-13 13:03:00,
2013-03-13 08:08:00,10.0,6.4,30.40,WNW,300,0.0,1.0,85,0.00,,,0.00,VWS V14.01,2013-03-13 13:08:00,
2013-03-13 08:13:00,10.2,6.6,30.40,WNW,300,0.0,1.0,85,0.00,,,0.00,VWS V14.01,2013-03-13 13:13:00,
2013-03-13 08:19:00,10.5,6.9,30.40,WNW,299,0.0,1.0,85,0.00,,,0.00,VWS V14.01,2013-03-13 13:19:00,
2013-03-13 08:24:00,10.8,7.2,30.40,WNW,300,0.0,2.0,85,0.00,,,0.00,VWS V14.01,2013-03-13 13:24:00,
2013-03-13 08:29:00,11.1,7.5,30.40,WNW,300,1.0,4.0,85,0.00,,,0.00,VWS V14.01,2013-03-13 13:29:00,
2013-03-13 08:34:00,11.4,7.8,30.41,WNW,300,0.0,3.0,85,0.00,,,0.00,VWS V14.01,2013-03-13 13:34:00,
2013-03-13 08:40:00,11.7,7.8,30.41,WNW,300,1.0,4.0,84,0.00,,,0.00,VWS V14.01,2013-03-13 13:40:00,
2013-03-13 08:45:00,11.8,7.9,30.41,WNW,299,1.0,4.0,84,0.00,,,0.00,VWS V14.01,2013-03-13 13:45:00,
2013-03-13 08:51:00,11.9,8.0,30.42,WNW,300,1.0,4.0,84,0.00,,,0.00,VWS V14.01,2013-03-13 13:51:00,
2013-03-13 08:56:00,12.0,7.8,30.42,WNW,300,0.0,6.0,83,0.00,,,0.00,VWS V14.01,2013-03-13 13:56:00,
2013-03-13 09:02:00,12.2,8.0,30.42,WNW,299,0.0,3.0,83,0.00,,,0.00,VWS V14.01,2013-03-13 14:02:00,
2013-03-13 09:07:00,12.5,8.3,30.42,WNW,299,0.0,6.0,83,0.00,,,0.00,VWS V14.01,2013-03-13 14:07:00,
2013-03-13 09:12:00,12.6,8.4,30.42,WNW,299,2.0,6.0,83,0.00,,,0.00,VWS V14.01,2013-03-13 14:12:00,
2013-03-13 09:17:00,12.8,8.6,30.42,NW,308,5.0,11.0,83,0.00,,,0.00,VWS V14.01,2013-03-13 14:17:00,
2013-03-13 09:22:00,12.8,8.4,30.43,WNW,287,2.0,11.0,82,0.00,,,0.00,VWS V14.01,2013-03-13 14:22:00,
2013-03-13 09:28:00,12.9,8.7,30.43,WNW,294,2.0,11.0,83,0.00,,,0.00,VWS V14.01,2013-03-13 14:28:00,
2013-03-13 09:33:00,13.1,8.6,30.43,WNW,300,3.0,4.0,82,0.00,,,0.00,VWS V14.01,2013-03-13 14:33:00,
2013-03-13 09:38:00,13.4,8.9,30.43,WNW,296,5.0,5.0,82,0.00,,,0.00,VWS V14.01,2013-03-13 14:38:00,
2013-03-13 09:44:00,13.9,9.4,30.43,WNW,296,5.0,7.0,82,0.00,,,0.00,VWS V14.01,2013-03-13 14:44:00,
2013-03-13 09:49:00,14.1,9.6,30.44,WNW,291,0.0,11.0,82,0.00,,,0.00,VWS V14.01,2013-03-13 14:49:00,
2013-03-13 09:54:00,14.4,9.9,30.44,WNW,291,2.0,11.0,82,0.00,,,0.00,VWS V14.01,2013-03-13 14:54:00,
2013-03-13 09:59:00,14.8,10.3,30.44,WNW,292,5.0,11.0,82,0.00,,,0.00,VWS V14.01,2013-03-13 14:59:00,
2013-03-13 10:04:00,15.3,10.5,30.44,NW,312,2.0,7.0,81,0.00,,,0.00,VWS V14.01,2013-03-13 15:04:00,
2013-03-13 10:09:00,15.7,10.9,30.44,WNW,288,3.0,7.0,81,0.00,,,0.00,VWS V14.01,2013-03-13 15:09:00,
2013-03-13 10:14:00,16.1,11.0,30.44,West,264,2.0,7.0,80,0.00,,,0.00,VWS V14.01,2013-03-13 15:14:00,
2013-03-13 10:20:00,16.5,11.4,30.44,West,267,2.0,7.0,80,0.00,,,0.00,VWS V14.01,2013-03-13 15:20:00,
2013-03-13 10:25:00,16.7,11.3,30.45,West,267,0.0,7.0,79,0.00,,,0.00,VWS V14.01,2013-03-13 15:25:00,
2013-03-13 10:31:00,16.7,11.3,30.45,West,271,2.0,7.0,79,0.00,,,0.00,VWS V14.01,2013-03-13 15:31:00,
2013-03-13 10:36:00,16.7,11.3,30.45,WNW,285,0.0,6.0,79,0.00,,,0.00,VWS V14.01,2013-03-13 15:36:00,
2013-03-13 10:41:00,16.8,11.4,30.45,WNW,283,0.0,6.0,79,0.00,,,0.00,VWS V14.01,2013-03-13 15:41:00,
2013-03-13 10:46:00,17.2,11.8,30.45,WNW,283,0.0,6.0,79,0.00,,,0.00,VWS V14.01,2013-03-13 15:46:00,
2013-03-13 10:51:00,17.4,11.7,30.45,WNW,283,0.0,6.0,78,0.00,,,0.00,VWS V14.01,2013-03-13 15:51:00,
2013-03-13 10:57:00,17.8,12.1,30.45,WNW,283,0.0,6.0,78,0.00,,,0.00,VWS V14.01,2013-03-13 15:57:00,
2013-03-13 11:00:00,18.1,12.4,30.45,WSW,254,0.0,6.0,78,0.00,,,0.00,VWS V15.00,2013-03-13 16:00:00,
2013-03-13 11:02:00,18.3,12.6,30.45,WSW,250,0.0,2.0,78,0.00,,,0.00,VWS V14.01,2013-03-13 16:02:00,
2013-03-13 11:08:00,18.8,13.1,30.45,WSW,254,0.0,4.0,78,0.00,,,0.00,VWS V14.01,2013-03-13 16:08:00,
2013-03-13 11:13:00,18.6,12.3,30.45,West,269,2.0,4.0,76,0.00,,,0.00,VWS V14.01,2013-03-13 16:13:00,
2013-03-13 11:18:00,18.6,12.6,30.45,West,269,3.0,5.0,77,0.00,,,0.00,VWS V14.01,2013-03-13 16:18:00,
2013-03-13 11:24:00,18.8,12.5,30.45,West,269,0.0,5.0,76,0.00,,,0.00,VWS V14.01,2013-03-13 16:24:00,
2013-03-13 11:29:00,19.0,12.7,30.45,West,269,0.0,5.0,76,0.00,,,0.00,VWS V14.01,2013-03-13 16:29:00,
2013-03-13 11:30:00,19.1,12.8,30.45,West,269,0.0,5.0,76,0.00,,,0.00,VWS V15.00,2013-03-13 16:30:00,
2013-03-13 11:34:00,19.2,12.6,30.45,West,269,0.0,4.0,75,0.00,,,0.00,VWS V14.01,2013-03-13 16:34:00,
2013-03-13 11:39:00,19.7,13.4,30.45,West,269,0.0,4.0,76,0.00,,,0.00,VWS V14.01,2013-03-13 16:39:00,
2013-03-13 11:44:00,20.2,13.9,30.45,West,269,0.0,4.0,76,0.00,,,0.00,VWS V14.01,2013-03-13 16:44:00,
2013-03-13 11:50:00,20.9,14.2,30.44,SSW,196,4.0,5.0,75,0.00,,,0.00,VWS V14.01,2013-03-13 16:50:00,
2013-03-13 11:55:00,21.6,14.3,30.45,SSW,195,4.0,5.0,73,0.00,,,0.00,VWS V14.01,2013-03-13 16:55:00,
2013-03-13 12:00:00,21.9,14.3,30.45,SSW,195,0.0,5.0,72,0.00,,,0.00,VWS V14.01,2013-03-13 17:00:00,
2013-03-13 12:06:00,22.2,14.6,30.45,SSW,196,0.0,4.0,72,0.00,,,0.00,VWS V14.01,2013-03-13 17:06:00,
2013-03-13 12:11:00,22.2,14.6,30.44,SSW,195,5.0,5.0,72,0.00,,,0.00,VWS V14.01,2013-03-13 17:11:00,
2013-03-13 12:16:00,22.7,15.4,30.45,South,188,3.0,5.0,73,0.00,,,0.00,VWS V14.01,2013-03-13 17:16:00,
2013-03-13 12:22:00,23.3,15.6,30.45,South,190,5.0,6.0,72,0.00,,,0.00,VWS V14.01,2013-03-13 17:22:00,
2013-03-13 12:27:00,23.8,15.8,30.44,SSW,195,4.0,6.0,71,0.00,,,0.00,VWS V14.01,2013-03-13 17:27:00,
2013-03-13 12:30:00,24.2,16.2,30.44,SSW,194,1.0,6.0,71,0.00,,,0.00,VWS V15.00,2013-03-13 17:30:00,
2013-03-13 12:32:00,24.4,16.4,30.44,SSW,194,5.0,6.0,71,0.00,,,0.00,VWS V14.01,2013-03-13 17:32:00,
2013-03-13 12:38:00,24.7,16.3,30.44,SSW,194,3.0,6.0,70,0.00,,,0.00,VWS V14.01,2013-03-13 17:38:00,
2013-03-13 12:44:00,24.8,16.1,30.44,SSW,194,1.0,6.0,69,0.00,,,0.00,VWS V14.01,2013-03-13 17:44:00,
2013-03-13 12:49:00,25.1,16.4,30.44,SSW,195,4.0,6.0,69,0.00,,,0.00,VWS V14.01,2013-03-13 17:49:00,
2013-03-13 12:54:00,25.3,16.6,30.44,SSW,193,7.0,7.0,69,0.00,,,0.00,VWS V14.01,2013-03-13 17:54:00,
2013-03-13 13:00:00,25.5,16.8,30.44,South,190,0.0,7.0,69,0.00,,,0.00,VWS V14.01,2013-03-13 18:00:00,
2013-03-13 13:05:00,25.8,17.4,30.44,South,191,4.0,5.0,70,0.00,,,0.00,VWS V14.01,2013-03-13 18:05:00,
2013-03-13 13:10:00,26.0,17.6,30.44,South,191,0.0,7.0,70,0.00,,,0.00,VWS V14.01,2013-03-13 18:10:00,
2013-03-13 13:15:00,25.9,17.5,30.44,South,190,9.0,9.0,70,0.00,,,0.00,VWS V14.01,2013-03-13 18:15:00,
2013-03-13 13:20:00,26.0,17.6,30.44,South,189,0.0,9.0,70,0.00,,,0.00,VWS V14.01,2013-03-13 18:20:00,
2013-03-13 13:26:00,25.6,16.9,30.44,West,277,0.0,9.0,69,0.00,,,0.00,VWS V14.01,2013-03-13 18:26:00,
2013-03-13 13:31:00,25.4,17.3,30.44,West,261,0.0,4.0,71,0.00,,,0.00,VWS V14.01,2013-03-13 18:31:00,
2013-03-13 13:36:00,26.0,17.9,30.44,WSW,254,2.0,7.0,71,0.00,,,0.00,VWS V14.01,2013-03-13 18:36:00,
2013-03-13 13:42:00,26.0,17.9,30.44,SSW,198,6.0,7.0,71,0.00,,,0.00,VWS V14.01,2013-03-13 18:42:00,
2013-03-13 13:47:00,26.3,18.2,30.43,SSW,198,5.0,9.0,71,0.00,,,0.00,VWS V14.01,2013-03-13 18:47:00,
2013-03-13 13:52:00,26.8,18.7,30.44,South,173,9.0,9.0,71,0.00,,,0.00,VWS V14.01,2013-03-13 18:52:00,
2013-03-13 13:57:00,27.2,18.7,30.44,South,186,5.0,10.0,70,0.00,,,0.00,VWS V14.01,2013-03-13 18:57:00,
2013-03-13 14:00:00,27.4,18.9,30.44,WSW,245,5.0,10.0,70,0.00,,,0.00,VWS V15.00,2013-03-13 19:00:00,
2013-03-13 14:03:00,27.5,19.4,30.43,South,191,4.0,6.0,71,0.00,,,0.00,VWS V14.01,2013-03-13 19:03:00,
2013-03-13 14:08:00,27.8,19.0,30.43,WSW,254,4.0,10.0,69,0.00,,,0.00,VWS V14.01,2013-03-13 19:08:00,
2013-03-13 14:13:00,26.9,17.8,30.43,NW,316,3.0,10.0,68,0.00,,,0.00,VWS V14.01,2013-03-13 19:13:00,
2013-03-13 14:18:00,26.6,18.5,30.43,South,175,3.0,11.0,71,0.00,,,0.00,VWS V14.01,2013-03-13 19:18:00,
2013-03-13 14:23:00,26.7,17.9,30.43,West,273,2.0,11.0,69,0.00,,,0.00,VWS V14.01,2013-03-13 19:23:00,
2013-03-13 14:29:00,26.1,17.7,30.42,West,277,3.0,11.0,70,0.00,,,0.00,VWS V14.01,2013-03-13 19:29:00,
2013-03-13 14:34:00,26.0,17.9,30.42,SSW,198,3.0,7.0,71,0.00,,,0.00,VWS V14.01,2013-03-13 19:34:00,
2013-03-13 14:39:00,26.5,18.0,30.42,West,266,2.0,7.0,70,0.00,,,0.00,VWS V14.01,2013-03-13 19:39:00,
2013-03-13 14:45:00,26.3,17.9,30.41,West,273,4.0,7.0,70,0.00,,,0.00,VWS V14.01,2013-03-13 19:45:00,
2013-03-13 14:50:00,26.2,18.1,30.41,West,270,0.0,7.0,71,0.00,,,0.00,VWS V14.01,2013-03-13 19:50:00,
2013-03-13 14:55:00,26.5,18.4,30.42,South,182,6.0,8.0,71,0.00,,,0.00,VWS V14.01,2013-03-13 19:55:00,
2013-03-13 15:00:00,27.0,18.5,30.41,SSW,197,9.0,10.0,70,0.00,,,0.00,VWS V14.01,2013-03-13 20:00:00,
2013-03-13 15:06:00,27.6,19.1,30.41,SSW,199,6.0,9.0,70,0.00,,,0.00,VWS V14.01,2013-03-13 20:06:00,
2013-03-13 15:11:00,28.1,19.3,30.41,WSW,245,2.0,9.0,69,0.00,,,0.00,VWS V14.01,2013-03-13 20:11:00,
2013-03-13 15:16:00,28.4,19.2,30.41,South,178,4.0,9.0,68,0.00,,,0.00,VWS V14.01,2013-03-13 20:16:00,
2013-03-13 15:22:00,28.6,19.4,30.41,South,191,5.0,10.0,68,0.00,,,0.00,VWS V14.01,2013-03-13 20:22:00,
2013-03-13 15:27:00,28.7,19.1,30.41,South,185,6.0,10.0,67,0.00,,,0.00,VWS V14.01,2013-03-13 20:27:00,
2013-03-13 15:32:00,28.8,19.2,30.41,South,179,5.0,9.0,67,0.00,,,0.00,VWS V14.01,2013-03-13 20:32:00,
2013-03-13 15:37:00,28.9,19.3,30.41,South,181,7.0,9.0,67,0.00,,,0.00,VWS V14.01,2013-03-13 20:37:00,
2013-03-13 15:43:00,29.1,19.2,30.41,South,183,6.0,9.0,66,0.00,,,0.00,VWS V14.01,2013-03-13 20:43:00,
2013-03-13 15:48:00,29.2,19.3,30.41,South,187,6.0,9.0,66,0.00,,,0.00,VWS V14.01,2013-03-13 20:48:00,
2013-03-13 15:53:00,29.2,19.3,30.41,SSW,195,5.0,9.0,66,0.00,,,0.00,VWS V14.01,2013-03-13 20:53:00,
2013-03-13 15:58:00,29.2,19.3,30.41,South,183,6.0,11.0,66,0.00,,,0.00,VWS V14.01,2013-03-13 20:58:00,
2013-03-13 16:00:00,29.2,19.3,30.41,South,182,7.0,11.0,66,0.00,,,0.00,VWS V15.00,2013-03-13 21:00:00,
2013-03-13 16:04:00,29.0,18.7,30.41,South,170,7.0,10.0,65,0.00,,,0.00,VWS V14.01,2013-03-13 21:04:00,
2013-03-13 16:09:00,29.0,19.1,30.41,South,183,9.0,11.0,66,0.00,,,0.00,VWS V14.01,2013-03-13 21:09:00,
2013-03-13 16:14:00,28.9,19.0,30.41,South,185,5.0,11.0,66,0.00,,,0.00,VWS V14.01,2013-03-13 21:14:00,
2013-03-13 16:19:00,28.9,19.0,30.40,SSW,194,7.0,11.0,66,0.00,,,0.00,VWS V14.01,2013-03-13 21:19:00,
2013-03-13 16:24:00,28.8,19.2,30.40,SSW,198,9.0,11.0,67,0.00,,,0.00,VWS V14.01,2013-03-13 21:24:00,
2013-03-13 16:30:00,28.9,19.0,30.40,WSW,257,5.0,11.0,66,0.00,,,0.00,VWS V14.01,2013-03-13 21:30:00,
2013-03-13 16:35:00,29.0,19.1,30.40,West,266,6.0,9.0,66,0.00,,,0.00,VWS V14.01,2013-03-13 21:35:00,
2013-03-13 16:40:00,29.1,19.2,30.40,SSW,198,3.0,9.0,66,0.00,,,0.00,VWS V14.01,2013-03-13 21:40:00,
2013-03-13 16:46:00,29.2,19.3,30.40,West,262,2.0,9.0,66,0.00,,,0.00,VWS V14.01,2013-03-13 21:46:00,
2013-03-13 16:51:00,29.1,19.5,30.39,WSW,256,3.0,9.0,67,0.00,,,0.00,VWS V14.01,2013-03-13 21:51:00,
2013-03-13 16:56:00,29.2,19.6,30.39,South,181,0.0,9.0,67,0.00,,,0.00,VWS V14.01,2013-03-13 21:56:00,
2013-03-13 17:02:00,29.3,20.1,30.39,South,188,4.0,5.0,68,0.00,,,0.00,VWS V14.01,2013-03-13 22:02:00,
2013-03-13 17:07:00,29.3,19.7,30.39,South,169,5.0,9.0,67,0.00,,,0.00,VWS V14.01,2013-03-13 22:07:00,
2013-03-13 17:12:00,29.2,19.6,30.39,South,173,4.0,9.0,67,0.00,,,0.00,VWS V14.01,2013-03-13 22:12:00,
2013-03-13 17:18:00,29.1,19.5,30.38,South,181,4.0,9.0,67,0.00,,,0.00,VWS V14.01,2013-03-13 22:18:00,
2013-03-13 17:23:00,29.0,19.4,30.38,South,186,3.0,9.0,67,0.00,,,0.00,VWS V14.01,2013-03-13 22:23:00,
2013-03-13 17:28:00,28.8,19.6,30.38,SSE,168,4.0,10.0,68,0.00,,,0.00,VWS V14.01,2013-03-13 22:28:00,
2013-03-13 17:30:00,28.7,19.5,30.37,SSE,165,3.0,10.0,68,0.00,,,0.00,VWS V15.00,2013-03-13 22:30:00,
2013-03-13 17:34:00,28.5,19.3,30.37,SSE,168,9.0,9.0,68,0.00,,,0.00,VWS V14.01,2013-03-13 22:34:00,
2013-03-13 17:39:00,28.2,19.0,30.37,South,177,2.0,11.0,68,0.00,,,0.00,VWS V14.01,2013-03-13 22:39:00,
2013-03-13 17:44:00,28.0,18.8,30.37,South,175,4.0,11.0,68,0.00,,,0.00,VWS V14.01,2013-03-13 22:44:00,
2013-03-13 17:49:00,27.8,18.3,30.37,South,179,6.0,11.0,67,0.00,,,0.00,VWS V14.01,2013-03-13 22:49:00,
2013-03-13 17:55:00,27.5,18.0,30.37,South,169,6.0,11.0,67,0.00,,,0.00,VWS V14.01,2013-03-13 22:55:00,
2013-03-13 18:00:00,27.3,18.1,30.37,South,175,3.0,11.0,68,0.00,,,0.00,VWS V14.01,2013-03-13 23:00:00,
2013-03-13 18:05:00,27.2,18.0,30.37,South,169,5.0,10.0,68,0.00,,,0.00,VWS V14.01,2013-03-13 23:05:00,
2013-03-13 18:10:00,27.1,18.3,30.38,South,175,4.0,10.0,69,0.00,,,0.00,VWS V14.01,2013-03-13 23:10:00,
2013-03-13 18:16:00,26.9,18.1,30.38,South,179,4.0,10.0,69,0.00,,,0.00,VWS V14.01,2013-03-13 23:16:00,
2013-03-13 18:21:00,26.7,17.9,30.38,South,181,5.0,10.0,69,0.00,,,0.00,VWS V14.01,2013-03-13 23:21:00,
2013-03-13 18:27:00,26.6,17.8,30.38,South,181,2.0,10.0,69,0.00,,,0.00,VWS V14.01,2013-03-13 23:27:00,
2013-03-13 18:32:00,26.3,18.2,30.37,South,181,0.0,5.0,71,0.00,,,0.00,VWS V14.01,2013-03-13 23:32:00,
2013-03-13 18:37:00,26.1,18.3,30.37,South,181,0.0,5.0,72,0.00,,,0.00,VWS V14.01,2013-03-13 23:37:00,
2013-03-13 18:43:00,25.8,18.4,30.37,South,181,2.0,6.0,73,0.00,,,0.00,VWS V14.01,2013-03-13 23:43:00,
2013-03-13 18:48:00,25.4,18.3,30.37,South,181,1.0,6.0,74,0.00,,,0.00,VWS V14.01,2013-03-13 23:48:00,
2013-03-13 18:53:00,25.0,17.9,30.38,SSE,166,4.0,7.0,74,0.00,,,0.00,VWS V14.01,2013-03-13 23:53:00,
2013-03-13 18:58:00,24.6,17.8,30.38,SSE,152,3.0,7.0,75,0.00,,,0.00,VWS V14.01,2013-03-13 23:58:00,
2013-03-13 19:04:00,24.3,17.5,30.38,South,170,2.0,6.0,75,0.00,,,0.00,VWS V14.01,2013-03-14 00:04:00,
2013-03-13 19:09:00,24.1,17.6,30.39,South,170,4.0,6.0,76,0.00,,,0.00,VWS V14.01,2013-03-14 00:09:00,
2013-03-13 19:14:00,23.9,17.5,30.39,South,170,0.0,6.0,76,0.00,,,0.00,VWS V14.01,2013-03-14 00:14:00,
2013-03-13 19:20:00,23.7,17.3,30.39,South,170,0.0,6.0,76,0.00,,,0.00,VWS V14.01,2013-03-14 00:20:00,
2013-03-13 19:25:00,23.5,17.4,30.38,South,171,0.0,6.0,77,0.00,,,0.00,VWS V14.01,2013-03-14 00:25:00,
2013-03-13 19:30:00,23.3,17.2,30.38,South,171,0.0,6.0,77,0.00,,,0.00,VWS V14.01,2013-03-14 00:30:00,
2013-03-13 19:36:00,23.1,17.0,30.38,South,171,0.0,1.0,77,0.00,,,0.00,VWS V14.01,2013-03-14 00:36:00,
2013-03-13 19:42:00,22.9,16.8,30.38,South,171,2.0,4.0,77,0.00,,,0.00,VWS V14.01,2013-03-14 00:42:00,
2013-03-13 19:47:00,22.8,17.0,30.38,South,171,0.0,4.0,78,0.00,,,0.00,VWS V14.01,2013-03-14 00:47:00,
2013-03-13 19:52:00,22.7,16.9,30.37,South,171,3.0,4.0,78,0.00,,,0.00,VWS V14.01,2013-03-14 00:52:00,
2013-03-13 19:57:00,22.6,16.8,30.38,South,171,2.0,5.0,78,0.00,,,0.00,VWS V14.01,2013-03-14 00:57:00,
2013-03-13 20:03:00,22.5,17.0,30.37,South,171,0.0,4.0,79,0.00,,,0.00,VWS V14.01,2013-03-14 01:03:00,
2013-03-13 20:08:00,22.5,17.0,30.37,South,170,0.0,4.0,79,0.00,,,0.00,VWS V14.01,2013-03-14 01:08:00,
2013-03-13 20:13:00,22.4,16.9,30.36,South,171,0.0,4.0,79,0.00,,,0.00,VWS V14.01,2013-03-14 01:13:00,
2013-03-13 20:18:00,22.4,16.9,30.36,South,171,0.0,4.0,79,0.00,,,0.00,VWS V14.01,2013-03-14 01:18:00,
2013-03-13 20:23:00,22.3,17.1,30.36,South,171,0.0,4.0,80,0.00,,,0.00,VWS V14.01,2013-03-14 01:23:00,
2013-03-13 20:29:00,22.2,17.0,30.36,South,171,0.0,4.0,80,0.00,,,0.00,VWS V14.01,2013-03-14 01:29:00,
2013-03-13 20:30:00,22.2,17.0,30.35,South,171,0.0,4.0,80,0.00,,,0.00,VWS V15.00,2013-03-14 01:30:00,
2013-03-13 20:34:00,22.1,16.9,30.35,South,171,0.0,0.0,80,0.00,,,0.00,VWS V14.01,2013-03-14 01:34:00,
2013-03-13 20:39:00,22.1,16.9,30.35,South,171,0.0,0.0,80,0.00,,,0.00,VWS V14.01,2013-03-14 01:39:00,
2013-03-13 20:45:00,22.0,16.8,30.35,South,171,0.0,0.0,80,0.00,,,0.00,VWS V14.01,2013-03-14 01:45:00,
2013-03-13 20:50:00,21.9,17.0,30.36,South,171,0.0,3.0,81,0.00,,,0.00,VWS V14.01,2013-03-14 01:50:00,
2013-03-13 20:55:00,21.8,16.6,30.35,South,171,0.0,3.0,80,0.00,,,0.00,VWS V14.01,2013-03-14 01:55:00,
2013-03-13 21:00:00,21.8,16.9,30.35,South,171,0.0,3.0,81,0.00,,,0.00,VWS V15.00,2013-03-14 02:00:00,
2013-03-13 21:01:00,21.8,16.9,30.35,South,171,0.0,3.0,81,0.00,,,0.00,VWS V14.01,2013-03-14 02:01:00,
2013-03-13 21:06:00,21.7,16.8,30.35,South,171,0.0,0.0,81,0.00,,,0.00,VWS V14.01,2013-03-14 02:06:00,
2013-03-13 21:11:00,21.7,16.8,30.34,South,171,0.0,0.0,81,0.00,,,0.00,VWS V14.01,2013-03-14 02:11:00,
2013-03-13 21:17:00,21.7,16.8,30.34,South,171,0.0,0.0,81,0.00,,,0.00,VWS V14.01,2013-03-14 02:17:00,
2013-03-13 21:22:00,21.7,16.8,30.34,South,171,0.0,0.0,81,0.00,,,0.00,VWS V14.01,2013-03-14 02:22:00,
2013-03-13 21:27:00,21.7,16.8,30.34,South,171,0.0,0.0,81,0.00,,,0.00,VWS V14.01,2013-03-14 02:27:00,
2013-03-13 21:32:00,21.7,16.8,30.34,South,171,0.0,0.0,81,0.00,,,0.00,VWS V14.01,2013-03-14 02:32:00,
2013-03-13 21:38:00,21.7,16.8,30.34,South,171,0.0,0.0,81,0.00,,,0.00,VWS V14.01,2013-03-14 02:38:00,
2013-03-13 21:43:00,21.8,16.9,30.33,South,171,0.0,0.0,81,0.00,,,0.00,VWS V14.01,2013-03-14 02:43:00,
2013-03-13 21:48:00,21.8,16.9,30.33,South,171,0.0,0.0,81,0.00,,,0.00,VWS V14.01,2013-03-14 02:48:00,
2013-03-13 21:53:00,21.9,17.0,30.33,South,171,0.0,0.0,81,0.00,,,0.00,VWS V14.01,2013-03-14 02:53:00,
2013-03-13 21:59:00,22.0,17.1,30.33,South,171,0.0,0.0,81,0.00,,,0.00,VWS V14.01,2013-03-14 02:59:00,
2013-03-13 22:00:00,22.0,17.1,30.33,South,171,0.0,0.0,81,0.00,,,0.00,VWS V15.00,2013-03-14 03:00:00,
2013-03-13 22:04:00,22.1,17.2,30.33,South,171,0.0,0.0,81,0.00,,,0.00,VWS V14.01,2013-03-14 03:04:00,
2013-03-13 22:09:00,22.2,17.3,30.33,South,171,0.0,0.0,81,0.00,,,0.00,VWS V14.01,2013-03-14 03:09:00,
2013-03-13 22:14:00,22.4,17.5,30.33,South,171,0.0,0.0,81,0.00,,,0.00,VWS V14.01,2013-03-14 03:14:00,
2013-03-13 22:20:00,22.5,17.3,30.32,South,171,2.0,4.0,80,0.00,,,0.00,VWS V14.01,2013-03-14 03:20:00,
2013-03-13 22:25:00,22.7,17.8,30.32,SSE,164,0.0,4.0,81,0.00,,,0.00,VWS V14.01,2013-03-14 03:25:00,
2013-03-13 22:30:00,22.7,17.8,30.32,ESE,107,0.0,4.0,81,0.00,,,0.00,VWS V14.01,2013-03-14 03:30:00,
2013-03-13 22:35:00,22.8,17.9,30.32,SE,129,0.0,5.0,81,0.00,,,0.00,VWS V14.01,2013-03-14 03:35:00,
2013-03-13 22:40:00,22.9,18.0,30.32,SE,129,0.0,5.0,81,0.00,,,0.00,VWS V14.01,2013-03-14 03:40:00,
2013-03-13 22:45:00,23.0,17.8,30.31,ESE,123,0.0,6.0,80,0.00,,,0.00,VWS V14.01,2013-03-14 03:45:00,
2013-03-13 22:51:00,23.1,18.1,30.31,ESE,121,3.0,6.0,81,0.00,,,0.00,VWS V14.01,2013-03-14 03:51:00,
2013-03-13 22:56:00,23.3,18.1,30.31,East,97,3.0,6.0,80,0.00,,,0.00,VWS V14.01,2013-03-14 03:56:00,
2013-03-13 23:00:00,23.4,18.1,30.31,ESE,117,5.0,6.0,80,0.00,,,0.00,VWS V14.01,2013-03-14 04:00:00,
2013-03-13 23:01:00,23.4,18.1,30.32,ESE,120,3.0,5.0,80,0.00,,,0.00,VWS V14.01,2013-03-14 04:01:00,
2013-03-13 23:05:00,23.4,18.1,30.32,ESE,119,2.0,5.0,80,0.00,,,0.00,VWS V14.01,2013-03-14 04:05:00,
2013-03-13 23:11:00,23.5,18.2,30.31,ESE,110,0.0,5.0,80,0.00,,,0.00,VWS V14.01,2013-03-14 04:11:00,
2013-03-13 23:17:00,23.6,18.4,30.31,ESE,110,4.0,5.0,80,0.00,,,0.00,VWS V14.01,2013-03-14 04:17:00,
2013-03-13 23:22:00,23.6,18.4,30.31,ESE,107,4.0,7.0,80,0.00,,,0.00,VWS V14.01,2013-03-14 04:22:00,
2013-03-13 23:27:00,23.7,18.5,30.30,ESE,106,5.0,9.0,80,0.00,,,0.00,VWS V14.01,2013-03-14 04:27:00,
2013-03-13 23:33:00,23.8,18.5,30.30,ESE,110,5.0,9.0,80,0.00,,,0.00,VWS V14.01,2013-03-14 04:33:00,
2013-03-13 23:38:00,23.8,18.5,30.30,ESE,106,3.0,9.0,80,0.00,,,0.00,VWS V14.01,2013-03-14 04:38:00,
2013-03-13 23:43:00,23.9,18.6,30.30,ESE,107,4.0,9.0,80,0.00,,,0.00,VWS V14.01,2013-03-14 04:43:00,
2013-03-13 23:48:00,24.0,19.0,30.30,ESE,106,4.0,9.0,81,0.00,,,0.00,VWS V14.01,2013-03-14 04:48:00,
2013-03-13 23:54:00,24.2,19.2,30.30,SE,140,0.0,9.0,81,0.00,,,0.00,VWS V14.01,2013-03-14 04:54:00,
2013-03-13 23:59:00,24.3,19.3,30.30,SE,133,4.0,9.0,81,0.00,,,0.00,VWS V14.01,2013-03-14 04:59:00,